createdAt,value
2019-02-15T00:01:47.779Z,83.45
2019-02-15T00:04:54.030Z,83.74
2019-02-15T00:08:00.368Z,83.81
2019-02-15T00:11:06.707Z,83.76
2019-02-15T00:14:13.045Z,83.99
2019-02-15T00:17:38.278Z,84.11
2019-02-15T00:20:51.512Z,84.11
2019-02-15T00:23:57.961Z,83.92
2019-02-15T00:27:04.301Z,84.32
2019-02-15T00:30:11.674Z,83.92
2019-02-15T00:33:17.952Z,83.85
2019-02-15T00:36:24.326Z,84.23
2019-02-15T00:39:30.597Z,84.06
2019-02-15T00:42:36.896Z,84.26
2019-02-15T00:45:51.576Z,84.08
2019-02-15T00:48:58.856Z,84.18
2019-02-15T00:52:13.735Z,84.44
2019-02-15T00:55:42.005Z,84.37
2019-02-15T00:58:57.320Z,84.36
2019-02-15T01:02:19.047Z,84.35
2019-02-15T01:05:43.166Z,84.59
2019-02-15T01:09:20.969Z,84.28
2019-02-15T01:12:32.119Z,84.65
2019-02-15T01:15:38.476Z,84.46
2019-02-15T01:18:44.816Z,84.52
2019-02-15T01:21:51.080Z,83.98
2019-02-15T01:24:57.431Z,84.46
2019-02-15T01:28:15.499Z,84.34
2019-02-15T01:31:43.890Z,84.36
2019-02-15T01:35:08.580Z,84.36
2019-02-15T01:38:29.500Z,84.10
2019-02-15T01:41:46.234Z,84.77
2019-02-15T01:44:57.213Z,85.14
2019-02-15T01:48:03.590Z,84.96
2019-02-15T01:51:10.026Z,85.58
2019-02-15T01:54:16.413Z,85.51
2019-02-15T01:57:22.761Z,85.66
2019-02-15T02:00:32.289Z,85.47
2019-02-15T02:03:38.634Z,85.32
2019-02-15T02:06:45.002Z,85.41
2019-02-15T02:09:51.376Z,85.35
2019-02-15T02:12:57.726Z,85.78
2019-02-15T02:16:04.155Z,85.54
2019-02-15T02:19:10.488Z,85.86
2019-02-15T02:22:16.924Z,85.78
2019-02-15T02:25:23.320Z,86.05
2019-02-15T02:28:29.755Z,85.94
2019-02-15T02:31:36.176Z,85.65
2019-02-15T02:34:42.527Z,85.73
2019-02-15T02:37:48.914Z,86.03
2019-02-15T02:40:55.247Z,86.28
2019-02-15T02:44:01.573Z,86.14
2019-02-15T02:47:07.970Z,86.05
2019-02-15T02:50:14.294Z,86.21
2019-02-15T02:53:20.643Z,86.07
2019-02-15T02:56:26.926Z,85.78
2019-02-15T02:59:33.199Z,86.04
2019-02-15T03:02:39.524Z,86.07
2019-02-15T03:05:45.877Z,86.08
2019-02-15T03:08:52.345Z,85.67
2019-02-15T03:11:59.775Z,85.95
2019-02-15T03:15:06.339Z,86.24
2019-02-15T03:18:12.728Z,85.73
2019-02-15T03:21:19.535Z,85.80
2019-02-15T03:24:26.026Z,86.35
2019-02-15T03:27:32.363Z,86.49
2019-02-15T03:30:38.656Z,86.77
2019-02-15T03:33:45.010Z,87.01
2019-02-15T03:37:02.963Z,86.92
2019-02-15T03:40:34.537Z,86.85
2019-02-15T03:43:40.795Z,86.92
2019-02-15T03:46:47.147Z,86.61
2019-02-15T03:49:53.499Z,86.41
2019-02-15T03:52:59.885Z,86.10
2019-02-15T03:56:06.412Z,86.69
2019-02-15T03:59:12.732Z,86.65
2019-02-15T04:02:19.081Z,86.38
2019-02-15T04:05:25.475Z,86.17
2019-02-15T04:08:31.748Z,86.65
2019-02-15T04:11:38.163Z,86.73
2019-02-15T04:14:44.572Z,86.56
2019-02-15T04:17:50.941Z,86.60
2019-02-15T04:20:57.274Z,86.34
2019-02-15T04:24:03.734Z,86.80
2019-02-15T04:27:10.084Z,87.04
2019-02-15T04:30:16.363Z,86.96
2019-02-15T04:33:22.743Z,87.02
2019-02-15T04:36:29.356Z,86.61
2019-02-15T04:39:35.677Z,86.70
2019-02-15T04:42:42.066Z,86.01
2019-02-15T04:45:48.325Z,85.84
2019-02-15T04:48:54.717Z,86.37
2019-02-15T04:52:01.185Z,86.37
2019-02-15T04:55:07.570Z,86.95
2019-02-15T04:58:15.092Z,87.04
2019-02-15T05:01:21.551Z,87.45
2019-02-15T05:04:27.906Z,87.33
2019-02-15T05:07:34.246Z,87.68
2019-02-15T05:10:40.518Z,87.81
2019-02-15T05:13:46.928Z,88.02
2019-02-15T05:16:53.206Z,87.34
2019-02-15T05:19:59.486Z,87.41
2019-02-15T05:23:05.885Z,87.52
2019-02-15T05:26:12.260Z,87.92
2019-02-15T05:29:18.516Z,87.98
2019-02-15T05:32:24.924Z,87.82
2019-02-15T05:35:31.181Z,88.08
2019-02-15T05:38:37.663Z,88.22
2019-02-15T05:41:43.995Z,88.06
2019-02-15T05:44:50.409Z,88.23
2019-02-15T05:47:56.842Z,88.32
2019-02-15T05:51:03.324Z,88.09
2019-02-15T05:54:12.551Z,88.10
2019-02-15T05:57:18.948Z,87.92
2019-02-15T06:00:36.227Z,88.13
2019-02-15T06:03:33.788Z,88.34
2019-02-15T06:06:40.140Z,87.65
2019-02-15T06:09:46.625Z,87.68
2019-02-15T06:12:52.962Z,88.38
2019-02-15T06:15:59.388Z,87.70
2019-02-15T06:19:06.178Z,88.28
2019-02-15T06:22:12.868Z,88.35
2019-02-15T06:25:19.244Z,88.17
2019-02-15T06:28:25.735Z,88.20
2019-02-15T06:31:32.219Z,88.09
2019-02-15T06:34:38.717Z,87.88
2019-02-15T06:37:48.791Z,88.18
2019-02-15T06:40:58.207Z,87.23
2019-02-15T06:44:10.860Z,87.23
2019-02-15T06:47:17.447Z,87.63
2019-02-15T06:50:23.849Z,88.19
2019-02-15T06:53:30.266Z,88.04
2019-02-15T06:56:36.667Z,88.09
2019-02-15T07:00:14.139Z,88.25
2019-02-15T07:03:48.109Z,88.39
2019-02-15T07:06:58.091Z,88.20
2019-02-15T07:10:04.553Z,87.79
2019-02-15T07:13:11.050Z,88.27
2019-02-15T07:16:17.983Z,87.93
2019-02-15T07:19:24.263Z,88.16
2019-02-15T07:22:30.829Z,88.28
2019-02-15T07:25:37.322Z,88.25
2019-02-15T07:28:43.677Z,88.05
2019-02-15T07:31:50.087Z,87.90
2019-02-15T07:34:56.459Z,87.77
2019-02-15T07:38:02.748Z,87.38
2019-02-15T07:41:09.094Z,86.83
2019-02-15T07:44:15.582Z,86.93
2019-02-15T07:48:15.734Z,86.33
2019-02-15T07:55:39.012Z,86.34
2019-02-15T08:03:57.050Z,85.77
2019-02-15T08:12:24.311Z,85.94
2019-02-15T08:19:46.995Z,86.04
2019-02-15T10:14:07.473Z,77.09
2019-02-15T10:26:03.444Z,74.42
2019-02-15T10:29:35.494Z,74.18
2019-02-15T10:32:42.223Z,73.12
2019-02-15T10:36:34.457Z,73.06
2019-02-15T10:57:05.896Z,71.54
2019-02-15T11:00:48.395Z,72.51
2019-02-15T11:04:24.919Z,74.07
2019-02-15T12:01:33.493Z,70.38
2019-02-15T12:18:45.312Z,68.69
2019-02-15T12:21:50.911Z,68.38
2019-02-15T12:25:05.180Z,68.71
2019-02-15T12:28:11.547Z,68.23
2019-02-15T12:31:19.307Z,67.77
2019-02-15T12:34:36.982Z,67.77
2019-02-15T12:37:45.211Z,67.45
2019-02-15T12:40:51.645Z,67.10
2019-02-15T12:43:58.157Z,67.15
2019-02-15T12:47:04.598Z,66.56
2019-02-15T12:50:13.746Z,66.27
2019-02-15T12:53:20.164Z,67.08
2019-02-15T12:56:30.551Z,67.44
2019-02-15T12:59:39.499Z,67.01
2019-02-15T13:02:45.811Z,67.05
2019-02-15T13:05:52.086Z,67.82
2019-02-15T13:08:58.457Z,67.09
2019-02-15T13:12:04.835Z,67.49
2019-02-15T13:15:11.363Z,67.50
2019-02-15T13:18:17.625Z,68.27
2019-02-15T13:21:23.934Z,68.27
2019-02-15T13:24:30.226Z,68.17
2019-02-15T13:27:36.541Z,69.04
2019-02-15T13:39:48.496Z,69.68
2019-02-15T13:42:54.744Z,69.58
2019-02-15T13:46:01.005Z,70.55
2019-02-15T13:49:07.401Z,70.54
2019-02-15T13:52:13.894Z,70.89
2019-02-15T13:55:20.323Z,71.38
2019-02-15T13:58:28.151Z,71.43
2019-02-15T14:01:36.692Z,71.40
2019-02-15T14:04:43.121Z,71.97
2019-02-15T14:07:49.408Z,71.79
2019-02-15T14:11:34.524Z,71.92
2019-02-15T14:19:20.600Z,72.73
2019-02-15T14:22:56.410Z,72.87
2019-02-15T14:27:18.330Z,72.89
2019-02-15T14:30:47.713Z,72.65
2019-02-15T14:33:54.095Z,72.76
2019-02-15T14:37:01.810Z,72.85
2019-02-15T14:40:15.767Z,72.80
2019-02-15T14:43:23.593Z,72.56
2019-02-15T14:46:30.985Z,72.36
2019-02-15T14:49:37.293Z,72.55
2019-02-15T14:52:43.742Z,72.41
2019-02-15T14:55:50.132Z,72.54
2019-02-15T14:59:03.873Z,72.24
2019-02-15T15:02:30.511Z,72.50
2019-02-15T15:05:55.010Z,72.73
2019-02-15T15:09:16.397Z,72.74
2019-02-15T15:12:24.284Z,72.66
2019-02-15T15:15:33.301Z,72.70
2019-02-15T15:18:39.835Z,73.75
2019-02-15T15:21:48.244Z,73.84
2019-02-15T15:24:54.513Z,73.65
2019-02-15T15:28:01.116Z,73.81
2019-02-15T15:31:07.533Z,74.17
2019-02-15T15:34:13.912Z,73.97
2019-02-15T15:37:43.728Z,74.38
2019-02-15T15:40:53.003Z,74.28
2019-02-15T15:43:59.534Z,74.60
2019-02-15T15:47:07.210Z,74.60
2019-02-15T15:50:13.722Z,75.40
2019-02-15T15:53:21.868Z,75.65
2019-02-15T15:56:35.449Z,75.54
2019-02-15T15:59:44.299Z,75.64
2019-02-15T16:02:53.606Z,76.03
2019-02-15T16:06:00.393Z,75.69
2019-02-15T16:10:05.483Z,75.96
2019-02-15T16:13:54.579Z,76.12
2019-02-15T16:17:00.981Z,76.25
2019-02-15T16:20:08.814Z,75.97
2019-02-15T16:23:15.105Z,76.44
2019-02-15T16:26:21.650Z,76.83
2019-02-15T16:29:28.354Z,77.07
2019-02-15T16:32:34.770Z,77.18
2019-02-15T16:35:41.147Z,77.33
2019-02-15T16:38:47.957Z,77.52
2019-02-15T16:41:54.291Z,77.38
2019-02-15T16:45:00.810Z,77.32
2019-02-15T16:48:20.036Z,77.26
2019-02-15T16:51:26.872Z,77.18
2019-02-15T16:55:58.415Z,76.81
2019-02-15T16:59:04.817Z,76.86
2019-02-15T17:02:14.677Z,76.79
2019-02-15T17:05:21.111Z,76.73
2019-02-15T17:08:27.620Z,76.64
2019-02-15T17:11:34.248Z,76.65
2019-02-15T17:14:40.568Z,76.65
2019-02-15T17:17:47.068Z,76.38
2019-02-15T17:20:53.460Z,76.58
2019-02-15T17:23:59.850Z,76.71
2019-02-15T17:27:06.194Z,76.67
2019-02-15T17:30:13.101Z,76.71
2019-02-15T17:33:19.483Z,76.65
2019-02-15T17:36:25.831Z,76.85
2019-02-15T17:40:07.080Z,76.83
2019-02-15T17:43:16.971Z,76.98
2019-02-15T17:46:23.485Z,76.78
2019-02-15T17:49:29.894Z,76.88
2019-02-15T17:52:36.526Z,77.21
2019-02-15T17:55:43.906Z,77.01
2019-02-15T17:58:50.376Z,76.82
2019-02-15T18:03:04.082Z,76.87
2019-02-15T18:05:58.895Z,76.50
2019-02-15T18:09:06.826Z,76.71
2019-02-15T18:12:14.563Z,76.92
2019-02-15T18:15:30.890Z,77.01
2019-02-15T18:18:37.306Z,77.04
2019-02-15T18:21:47.155Z,77.34
2019-02-15T18:24:54.964Z,77.29
2019-02-15T18:28:01.266Z,77.19
2019-02-15T18:31:07.630Z,77.44
2019-02-15T18:34:14.179Z,77.29
2019-02-15T18:37:20.536Z,77.42
2019-02-15T18:40:27.138Z,77.22
2019-02-15T18:43:33.407Z,77.45
2019-02-15T18:46:39.739Z,77.37
2019-02-15T18:49:46.105Z,77.25
2019-02-15T18:52:52.458Z,77.20
2019-02-15T18:56:00.119Z,77.00
2019-02-15T18:59:06.451Z,76.95
2019-02-15T19:02:13.891Z,76.83
2019-02-15T19:05:21.346Z,76.82
2019-02-15T19:08:27.725Z,76.43
2019-02-15T19:11:34.156Z,76.48
2019-02-15T19:14:40.505Z,76.40
2019-02-15T19:17:46.874Z,76.18
2019-02-15T19:20:53.339Z,75.98
2019-02-15T19:23:59.793Z,75.84
2019-02-15T19:27:08.253Z,76.01
2019-02-15T19:30:17.042Z,75.92
2019-02-15T19:33:23.395Z,75.91
2019-02-15T19:36:29.811Z,75.55
2019-02-15T19:39:36.250Z,75.40
2019-02-15T19:42:47.733Z,75.33
2019-02-15T19:45:55.181Z,75.29
2019-02-15T19:49:02.454Z,74.99
2019-02-15T19:52:08.816Z,75.21
2019-02-15T19:55:15.295Z,74.87
2019-02-15T19:58:21.622Z,74.85
2019-02-15T20:01:29.626Z,74.83
2019-02-15T20:04:41.231Z,74.79
2019-02-15T20:07:49.548Z,74.50
2019-02-15T20:10:56.022Z,74.22
2019-02-15T20:14:02.389Z,74.07
2019-02-15T20:17:10.472Z,74.30
2019-02-15T20:20:16.952Z,73.89
2019-02-15T20:23:23.423Z,73.71
2019-02-15T20:26:32.910Z,73.63
2019-02-15T20:29:39.334Z,73.71
2019-02-15T20:32:45.672Z,73.59
2019-02-15T20:35:52.332Z,73.16
2019-02-15T20:38:59.823Z,72.95
2019-02-15T20:42:06.187Z,72.35
2019-02-15T20:45:15.173Z,72.13
2019-02-15T20:48:21.565Z,72.07
2019-02-15T20:51:43.353Z,72.12
2019-02-15T20:54:58.239Z,71.78
2019-02-15T20:58:04.535Z,71.63
2019-02-15T21:01:11.135Z,71.57
2019-02-15T21:04:17.587Z,71.60
2019-02-15T21:07:24.031Z,71.60
2019-02-15T21:10:30.344Z,71.41
2019-02-15T21:13:36.712Z,70.85
2019-02-15T21:16:43.146Z,70.91
2019-02-15T21:19:49.430Z,70.92
2019-02-15T21:22:55.727Z,70.56
2019-02-15T21:26:02.181Z,70.32
2019-02-15T21:29:09.516Z,69.97
2019-02-15T21:32:34.986Z,69.45
2019-02-15T21:35:39.853Z,68.98
2019-02-15T21:38:50.054Z,68.61
2019-02-15T21:41:57.595Z,68.32
2019-02-15T21:45:16.455Z,67.84
2019-02-15T21:48:26.421Z,67.47
2019-02-15T21:51:37.384Z,67.19
2019-02-15T21:54:43.847Z,66.89
2019-02-15T21:57:50.463Z,66.56
2019-02-15T22:00:56.818Z,65.76
2019-02-15T22:04:03.102Z,65.59
2019-02-15T22:07:09.524Z,64.87
2019-02-15T22:10:16.167Z,64.55
2019-02-15T22:13:22.660Z,64.66
2019-02-15T22:16:29.049Z,64.47
2019-02-15T22:19:35.458Z,63.70
2019-02-15T22:22:41.797Z,63.64
2019-02-15T22:25:48.157Z,63.11
2019-02-15T22:28:54.894Z,63.28
2019-02-15T22:32:02.551Z,62.67
2019-02-15T22:35:09.897Z,62.03
2019-02-15T22:38:17.812Z,62.75
2019-02-15T22:41:24.272Z,61.76
2019-02-15T22:44:30.557Z,61.70
2019-02-15T22:47:48.253Z,61.66
2019-02-15T22:50:56.893Z,60.73
2019-02-15T22:54:03.390Z,61.04
2019-02-15T22:57:09.710Z,60.68
2019-02-15T23:00:30.413Z,59.69
2019-02-15T23:03:38.289Z,59.58
2019-02-15T23:06:48.231Z,59.44
2019-02-15T23:10:02.923Z,59.21
2019-02-15T23:13:09.460Z,58.99
2019-02-15T23:16:16.258Z,59.44
2019-02-15T23:19:25.015Z,58.75
2019-02-15T23:22:34.087Z,58.44
2019-02-15T23:25:41.405Z,57.98
2019-02-15T23:28:48.224Z,58.49
2019-02-15T23:31:54.758Z,58.33
2019-02-15T23:35:01.230Z,57.91
2019-02-15T23:38:07.867Z,58.47
2019-02-15T23:41:15.812Z,58.02
2019-02-15T23:44:22.504Z,58.32
2019-02-15T23:47:41.572Z,57.79
2019-02-15T23:50:54.402Z,58.45
2019-02-15T23:53:56.319Z,57.70
2019-02-15T23:57:02.573Z,57.19
